sensor_id;sensor_type;location;lat;lon;timestamp;pressure;altitude;pressure_sealevel;temperature;humidity
56831;BME280;42713;42.676;23.352;2022-07-29T00:00:37;94924.91;;;22.62;60.22
56831;BME280;42713;42.676;23.352;2022-07-29T00:03:05;94932.31;;;22.65;59.79
56831;BME280;42713;42.676;23.352;2022-07-29T00:05:30;94934.19;;;22.65;59.58
56831;BME280;42713;42.676;23.352;2022-07-29T00:07:56;94943.75;;;22.66;59.62
56831;BME280;42713;42.676;23.352;2022-07-29T00:10:22;94947.84;;;22.63;58.88
56831;BME280;42713;42.676;23.352;2022-07-29T00:12:47;94946.44;;;22.66;59.15
56831;BME280;42713;42.676;23.352;2022-07-29T00:15:13;94953.66;;;22.65;59.71
56831;BME280;42713;42.676;23.352;2022-07-29T00:17:39;94951.00;;;22.65;60.47
56831;BME280;42713;42.676;23.352;2022-07-29T00:20:05;94951.00;;;22.65;59.86
56831;BME280;42713;42.676;23.352;2022-07-29T00:22:30;94951.00;;;22.65;59.42
56831;BME280;42713;42.676;23.352;2022-07-29T00:24:56;94953.34;;;22.67;59.02
56831;BME280;42713;42.676;23.352;2022-07-29T00:27:21;94949.91;;;22.66;59.19
56831;BME280;42713;42.676;23.352;2022-07-29T00:29:47;94945.97;;;22.64;60.10
56831;BME280;42713;42.676;23.352;2022-07-29T00:32:12;94939.97;;;22.58;59.95
56831;BME280;42713;42.676;23.352;2022-07-29T00:34:38;94943.91;;;22.52;60.74
56831;BME280;42713;42.676;23.352;2022-07-29T00:37:22;94939.66;;;22.51;60.40
56831;BME280;42713;42.676;23.352;2022-07-29T00:39:47;94945.81;;;22.51;59.91
56831;BME280;42713;42.676;23.352;2022-07-29T00:42:13;94947.19;;;22.49;59.96
56831;BME280;42713;42.676;23.352;2022-07-29T00:47:11;94948.31;;;22.48;59.85
56831;BME280;42713;42.676;23.352;2022-07-29T00:49:39;94955.03;;;22.45;60.43
56831;BME280;42713;42.676;23.352;2022-07-29T00:52:05;94955.50;;;22.38;60.50
56831;BME280;42713;42.676;23.352;2022-07-29T00:54:32;94955.16;;;22.31;61.35
56831;BME280;42713;42.676;23.352;2022-07-29T00:56:58;94958.91;;;22.21;59.84
56831;BME280;42713;42.676;23.352;2022-07-29T00:59:25;94960.41;;;22.05;60.33
56831;BME280;42713;42.676;23.352;2022-07-29T01:01:51;94959.94;;;21.94;61.39
56831;BME280;42713;42.676;23.352;2022-07-29T01:04:16;94957.22;;;21.85;61.91
56831;BME280;42713;42.676;23.352;2022-07-29T01:06:42;94945.75;;;21.76;62.71
56831;BME280;42713;42.676;23.352;2022-07-29T01:09:09;94947.16;;;21.73;63.07
56831;BME280;42713;42.676;23.352;2022-07-29T01:11:35;94943.72;;;21.73;63.44
56831;BME280;42713;42.676;23.352;2022-07-29T01:14:01;94951.38;;;21.74;63.68
56831;BME280;42713;42.676;23.352;2022-07-29T01:16:32;94948.41;;;21.76;63.55
56831;BME280;42713;42.676;23.352;2022-07-29T01:19:14;94936.81;;;21.72;63.26
56831;BME280;42713;42.676;23.352;2022-07-29T01:21:51;94940.50;;;21.62;64.05
56831;BME280;42713;42.676;23.352;2022-07-29T01:32:15;94934.81;;;21.55;64.21
56831;BME280;42713;42.676;23.352;2022-07-29T01:37:45;94930.22;;;21.46;65.07
56831;BME280;42713;42.676;23.352;2022-07-29T01:40:27;94923.97;;;21.51;64.56
56831;BME280;42713;42.676;23.352;2022-07-29T01:43:00;94922.09;;;21.52;64.89
56831;BME280;42713;42.676;23.352;2022-07-29T01:45:44;94923.97;;;21.51;65.07
56831;BME280;42713;42.676;23.352;2022-07-29T01:48:22;94929.00;;;21.53;65.31
56831;BME280;42713;42.676;23.352;2022-07-29T01:50:53;94927.91;;;21.54;65.05
56831;BME280;42713;42.676;23.352;2022-07-29T01:56:16;94927.69;;;21.41;65.51
56831;BME280;42713;42.676;23.352;2022-07-29T01:58:45;94915.47;;;21.40;65.57
56831;BME280;42713;42.676;23.352;2022-07-29T02:01:13;94928.81;;;21.40;66.12
56831;BME280;42713;42.676;23.352;2022-07-29T02:03:43;94925.03;;;21.41;65.62
56831;BME280;42713;42.676;23.352;2022-07-29T02:06:09;94914.19;;;21.38;65.52
56831;BME280;42713;42.676;23.352;2022-07-29T02:08:37;94915.16;;;21.42;65.57
56831;BME280;42713;42.676;23.352;2022-07-29T02:11:05;94909.69;;;21.47;65.13
56831;BME280;42713;42.676;23.352;2022-07-29T02:13:33;94904.34;;;21.47;65.45
56831;BME280;42713;42.676;23.352;2022-07-29T02:16:00;94898.38;;;21.41;65.48
56831;BME280;42713;42.676;23.352;2022-07-29T02:18:30;94905.59;;;21.41;65.70
56831;BME280;42713;42.676;23.352;2022-07-29T02:20:56;94906.09;;;21.43;65.69
56831;BME280;42713;42.676;23.352;2022-07-29T02:23:24;94909.53;;;21.43;65.64
56831;BME280;42713;42.676;23.352;2022-07-29T02:25:56;94910.31;;;21.44;65.67
56831;BME280;42713;42.676;23.352;2022-07-29T02:28:23;94915.81;;;21.48;65.51
56831;BME280;42713;42.676;23.352;2022-07-29T02:30:51;94905.75;;;21.44;65.44
56831;BME280;42713;42.676;23.352;2022-07-29T02:33:18;94908.13;;;21.46;65.67
56831;BME280;42713;42.676;23.352;2022-07-29T02:35:46;94902.44;;;21.39;66.07
56831;BME280;42713;42.676;23.352;2022-07-29T02:38:14;94897.44;;;21.37;65.99
56831;BME280;42713;42.676;23.352;2022-07-29T02:41:03;94894.78;;;21.37;66.27
56831;BME280;42713;42.676;23.352;2022-07-29T02:43:31;94888.97;;;21.35;66.01
56831;BME280;42713;42.676;23.352;2022-07-29T02:46:00;94879.06;;;21.36;66.06
56831;BME280;42713;42.676;23.352;2022-07-29T02:48:34;94885.69;;;21.38;65.96
56831;BME280;42713;42.676;23.352;2022-07-29T02:51:09;94875.63;;;21.35;66.11
56831;BME280;42713;42.676;23.352;2022-07-29T02:53:38;94885.81;;;21.33;65.85
56831;BME280;42713;42.676;23.352;2022-07-29T02:56:11;94893.97;;;21.37;65.99
56831;BME280;42713;42.676;23.352;2022-07-29T02:58:40;94891.31;;;21.37;66.12
56831;BME280;42713;42.676;23.352;2022-07-29T03:01:15;94887.69;;;21.33;66.43
56831;BME280;42713;42.676;23.352;2022-07-29T03:03:44;94892.38;;;21.27;66.72
56831;BME280;42713;42.676;23.352;2022-07-29T03:06:13;94889.69;;;21.27;66.27
56831;BME280;42713;42.676;23.352;2022-07-29T03:08:40;94890.66;;;21.31;66.22
56831;BME280;42713;42.676;23.352;2022-07-29T03:11:08;94884.38;;;21.27;66.51
56831;BME280;42713;42.676;23.352;2022-07-29T03:13:35;94886.06;;;21.23;66.53
56831;BME280;42713;42.676;23.352;2022-07-29T03:16:01;94890.13;;;21.20;66.41
56831;BME280;42713;42.676;23.352;2022-07-29T03:18:28;94892.19;;;21.23;65.97
56831;BME280;42713;42.676;23.352;2022-07-29T03:20:53;94895.16;;;21.22;66.14
56831;BME280;42713;42.676;23.352;2022-07-29T03:23:20;94892.97;;;21.24;66.04
56831;BME280;42713;42.676;23.352;2022-07-29T03:25:48;94885.47;;;21.26;66.25
56831;BME280;42713;42.676;23.352;2022-07-29T03:28:13;94886.88;;;21.23;66.28
56831;BME280;42713;42.676;23.352;2022-07-29T03:30:39;94893.88;;;21.19;66.58
56831;BME280;42713;42.676;23.352;2022-07-29T03:33:04;94893.88;;;21.19;66.59
56831;BME280;42713;42.676;23.352;2022-07-29T03:35:30;94898.94;;;21.21;66.29
56831;BME280;42713;42.676;23.352;2022-07-29T03:37:57;94893.28;;;21.22;66.14
56831;BME280;42713;42.676;23.352;2022-07-29T03:40:32;94896.25;;;21.21;66.30
56831;BME280;42713;42.676;23.352;2022-07-29T03:43:00;94897.34;;;21.20;66.27
56831;BME280;42713;42.676;23.352;2022-07-29T03:45:28;94900.19;;;21.23;66.59
56831;BME280;42713;42.676;23.352;2022-07-29T03:48:00;94909.09;;;21.19;66.52
56831;BME280;42713;42.676;23.352;2022-07-29T03:50:27;94901.59;;;21.21;66.37
56831;BME280;42713;42.676;23.352;2022-07-29T03:52:54;94901.28;;;21.22;66.52
56831;BME280;42713;42.676;23.352;2022-07-29T03:55:19;94914.00;;;21.25;66.50
56831;BME280;42713;42.676;23.352;2022-07-29T03:57:46;94910.53;;;21.25;66.29
56831;BME280;42713;42.676;23.352;2022-07-29T04:00:13;94910.66;;;21.20;66.45
56831;BME280;42713;42.676;23.352;2022-07-29T04:02:41;94913.19;;;21.25;66.39
56831;BME280;42713;42.676;23.352;2022-07-29T04:05:12;94912.72;;;21.23;66.62
56831;BME280;42713;42.676;23.352;2022-07-29T04:07:38;94916.66;;;21.25;66.87
56831;BME280;42713;42.676;23.352;2022-07-29T04:10:04;94919.91;;;21.22;67.10
56831;BME280;42713;42.676;23.352;2022-07-29T04:12:29;94916.34;;;21.27;67.25
56831;BME280;42713;42.676;23.352;2022-07-29T04:14:55;94910.88;;;21.32;66.71
56831;BME280;42713;42.676;23.352;2022-07-29T04:17:22;94911.84;;;21.36;66.68
56831;BME280;42713;42.676;23.352;2022-07-29T04:19:47;94906.69;;;21.40;66.30
56831;BME280;42713;42.676;23.352;2022-07-29T04:22:13;94909.53;;;21.43;66.23
56831;BME280;42713;42.676;23.352;2022-07-29T04:24:38;94903.91;;;21.45;66.39
56831;BME280;42713;42.676;23.352;2022-07-29T04:27:03;94904.84;;;21.49;66.19
56831;BME280;42713;42.676;23.352;2022-07-29T04:29:29;94905.50;;;21.55;66.14
56831;BME280;42713;42.676;23.352;2022-07-29T04:31:54;94903.03;;;21.58;65.25
56831;BME280;42713;42.676;23.352;2022-07-29T04:34:20;94909.16;;;21.59;65.65
56831;BME280;42713;42.676;23.352;2022-07-29T04:36:45;94916.22;;;21.64;65.61
56831;BME280;42713;42.676;23.352;2022-07-29T04:39:11;94916.22;;;21.64;65.38
56831;BME280;42713;42.676;23.352;2022-07-29T04:41:36;94919.19;;;21.62;65.67
56831;BME280;42713;42.676;23.352;2022-07-29T04:44:02;94926.91;;;21.64;65.42
56831;BME280;42713;42.676;23.352;2022-07-29T04:46:30;94925.34;;;21.71;65.08
56831;BME280;42713;42.676;23.352;2022-07-29T04:48:56;94927.72;;;21.73;64.92
56831;BME280;42713;42.676;23.352;2022-07-29T04:51:21;94920.16;;;21.75;65.04
56831;BME280;42713;42.676;23.352;2022-07-29T04:53:47;94918.78;;;21.77;65.25
56831;BME280;42713;42.676;23.352;2022-07-29T04:56:13;94921.75;;;21.76;65.00
56831;BME280;42713;42.676;23.352;2022-07-29T04:58:38;94930.72;;;21.80;64.50
56831;BME280;42713;42.676;23.352;2022-07-29T05:01:04;94930.41;;;21.82;63.77
56831;BME280;42713;42.676;23.352;2022-07-29T05:03:30;94935.13;;;21.85;63.39
56831;BME280;42713;42.676;23.352;2022-07-29T05:05:55;94936.09;;;21.89;63.62
56831;BME280;42713;42.676;23.352;2022-07-29T05:08:21;94929.81;;;21.94;63.11
56831;BME280;42713;42.676;23.352;2022-07-29T05:10:47;94934.53;;;21.97;63.11
56831;BME280;42713;42.676;23.352;2022-07-29T05:13:13;94927.81;;;21.99;63.28
56831;BME280;42713;42.676;23.352;2022-07-29T05:15:38;94934.88;;;22.04;62.45
56831;BME280;42713;42.676;23.352;2022-07-29T05:18:04;94933.13;;;22.08;62.55
56831;BME280;42713;42.676;23.352;2022-07-29T05:20:30;94944.78;;;22.12;62.45
56831;BME280;42713;42.676;23.352;2022-07-29T05:22:58;94944.44;;;22.14;62.19
56831;BME280;42713;42.676;23.352;2022-07-29T05:25:24;94942.75;;;22.18;61.88
56831;BME280;42713;42.676;23.352;2022-07-29T05:27:50;94944.00;;;22.20;61.30
56831;BME280;42713;42.676;23.352;2022-07-29T05:30:15;94941.00;;;22.22;61.44
56831;BME280;42713;42.676;23.352;2022-07-29T05:32:41;94935.22;;;22.29;61.16
56831;BME280;42713;42.676;23.352;2022-07-29T05:35:07;94932.72;;;22.32;60.66
56831;BME280;42713;42.676;23.352;2022-07-29T05:37:33;94934.44;;;22.37;60.47
56831;BME280;42713;42.676;23.352;2022-07-29T05:39:58;94937.00;;;22.42;60.64
56831;BME280;42713;42.676;23.352;2022-07-29T05:42:24;94942.50;;;22.46;60.95
56831;BME280;42713;42.676;23.352;2022-07-29T05:44:50;94946.91;;;22.50;60.61
56831;BME280;42713;42.676;23.352;2022-07-29T05:47:16;94939.06;;;22.54;60.74
56831;BME280;42713;42.676;23.352;2022-07-29T05:49:42;94939.53;;;22.56;60.18
56831;BME280;42713;42.676;23.352;2022-07-29T05:52:07;94941.56;;;22.59;60.25
56831;BME280;42713;42.676;23.352;2022-07-29T05:54:34;94946.91;;;22.59;60.22
56831;BME280;42713;42.676;23.352;2022-07-29T05:56:59;94947.38;;;22.61;60.42
56831;BME280;42713;42.676;23.352;2022-07-29T05:59:24;94946.75;;;22.64;59.97
56831;BME280;42713;42.676;23.352;2022-07-29T06:01:50;94948.81;;;22.67;59.85
56831;BME280;42713;42.676;23.352;2022-07-29T06:04:15;94949.25;;;22.69;60.27
56831;BME280;42713;42.676;23.352;2022-07-29T06:06:41;94947.06;;;22.72;60.29
56831;BME280;42713;42.676;23.352;2022-07-29T06:09:06;94946.44;;;22.75;60.22
56831;BME280;42713;42.676;23.352;2022-07-29T06:11:33;94948.47;;;22.78;59.97
56831;BME280;42713;42.676;23.352;2022-07-29T06:13:58;94947.84;;;22.81;59.55
56831;BME280;42713;42.676;23.352;2022-07-29T06:16:23;94951.47;;;22.85;59.49
56831;BME280;42713;42.676;23.352;2022-07-29T06:18:49;94955.06;;;22.89;59.79
56831;BME280;42713;42.676;23.352;2022-07-29T06:21:14;94952.09;;;22.91;59.71
56831;BME280;42713;42.676;23.352;2022-07-29T06:23:40;94951.16;;;22.95;59.73
56831;BME280;42713;42.676;23.352;2022-07-29T06:26:05;94946.44;;;23.01;59.45
56831;BME280;42713;42.676;23.352;2022-07-29T06:28:32;94946.59;;;23.05;58.80
56831;BME280;42713;42.676;23.352;2022-07-29T06:30:58;94955.22;;;23.10;59.10
56831;BME280;42713;42.676;23.352;2022-07-29T06:33:23;94948.13;;;23.14;59.22
56831;BME280;42713;42.676;23.352;2022-07-29T06:35:49;94949.09;;;23.19;58.98
56831;BME280;42713;42.676;23.352;2022-07-29T06:38:15;94948.00;;;23.20;58.90
56831;BME280;42713;42.676;23.352;2022-07-29T06:40:42;94939.81;;;23.25;58.38
56831;BME280;42713;42.676;23.352;2022-07-29T06:43:32;94942.19;;;23.26;58.54
56831;BME280;42713;42.676;23.352;2022-07-29T06:46:08;94944.19;;;23.29;58.71
56831;BME280;42713;42.676;23.352;2022-07-29T06:48:34;94940.09;;;23.32;58.16
56831;BME280;42713;42.676;23.352;2022-07-29T06:51:02;94941.38;;;23.35;58.22
56831;BME280;42713;42.676;23.352;2022-07-29T06:53:28;94941.06;;;23.36;58.49
56831;BME280;42713;42.676;23.352;2022-07-29T06:55:54;94948.13;;;23.41;58.41
56831;BME280;42713;42.676;23.352;2022-07-29T06:58:19;94936.31;;;23.42;58.53
56831;BME280;42713;42.676;23.352;2022-07-29T07:00:48;94934.59;;;23.46;58.44
56831;BME280;42713;42.676;23.352;2022-07-29T07:03:15;94932.84;;;23.50;57.63
56831;BME280;42713;42.676;23.352;2022-07-29T07:05:44;94931.41;;;23.53;57.68
56831;BME280;42713;42.676;23.352;2022-07-29T07:08:10;94925.41;;;23.56;57.63
56831;BME280;42713;42.676;23.352;2022-07-29T07:10:36;94922.41;;;23.57;57.24
56831;BME280;42713;42.676;23.352;2022-07-29T07:13:02;94927.78;;;23.57;57.67
56831;BME280;42713;42.676;23.352;2022-07-29T07:15:28;94926.81;;;23.62;57.52
56831;BME280;42713;42.676;23.352;2022-07-29T07:17:53;94929.31;;;23.67;56.77
56831;BME280;42713;42.676;23.352;2022-07-29T07:20:19;94926.00;;;23.70;56.50
56831;BME280;42713;42.676;23.352;2022-07-29T07:22:45;94936.19;;;23.77;56.55
56831;BME280;42713;42.676;23.352;2022-07-29T07:25:12;94929.09;;;23.81;56.28
56831;BME280;42713;42.676;23.352;2022-07-29T07:27:38;94931.59;;;23.86;56.03
56831;BME280;42713;42.676;23.352;2022-07-29T07:30:05;94925.47;;;23.86;56.04
56831;BME280;42713;42.676;23.352;2022-07-29T07:32:34;94928.13;;;23.95;55.65
56831;BME280;42713;42.676;23.352;2022-07-29T07:34:59;94917.56;;;23.98;54.78
56831;BME280;42713;42.676;23.352;2022-07-29T07:37:25;94918.81;;;24.01;54.56
56831;BME280;42713;42.676;23.352;2022-07-29T07:39:52;94916.91;;;24.01;55.01
56831;BME280;42713;42.676;23.352;2022-07-29T07:42:18;94922.41;;;24.05;55.30
56831;BME280;42713;42.676;23.352;2022-07-29T07:44:44;94909.94;;;24.09;55.02
56831;BME280;42713;42.676;23.352;2022-07-29T07:47:14;94922.34;;;24.14;54.40
56831;BME280;42713;42.676;23.352;2022-07-29T07:49:47;94915.13;;;24.14;54.20
56831;BME280;42713;42.676;23.352;2022-07-29T07:52:17;94920.28;;;24.19;53.98
56831;BME280;42713;42.676;23.352;2022-07-29T07:54:43;94927.00;;;24.25;54.46
56831;BME280;42713;42.676;23.352;2022-07-29T07:57:14;94915.31;;;24.30;53.90
56831;BME280;42713;42.676;23.352;2022-07-29T07:59:40;94926.34;;;24.29;53.79
56831;BME280;42713;42.676;23.352;2022-07-29T08:02:07;94928.06;;;24.33;53.57
56831;BME280;42713;42.676;23.352;2022-07-29T08:04:35;94919.38;;;24.36;53.15
56831;BME280;42713;42.676;23.352;2022-07-29T08:09:48;94913.81;;;24.42;53.04
56831;BME280;42713;42.676;23.352;2022-07-29T08:12:49;94922.56;;;24.51;52.54
56831;BME280;42713;42.676;23.352;2022-07-29T08:20:31;94906.91;;;24.62;51.36
56831;BME280;42713;42.676;23.352;2022-07-29T08:23:18;94903.91;;;24.63;51.87
56831;BME280;42713;42.676;23.352;2022-07-29T08:26:38;94897.25;;;24.69;51.89
56831;BME280;42713;42.676;23.352;2022-07-29T08:34:13;94907.63;;;24.92;50.72
56831;BME280;42713;42.676;23.352;2022-07-29T08:36:58;94907.84;;;24.99;50.12
56831;BME280;42713;42.676;23.352;2022-07-29T08:43:10;94907.00;;;25.08;49.15
56831;BME280;42713;42.676;23.352;2022-07-29T08:45:46;94902.53;;;25.12;48.79
56831;BME280;42713;42.676;23.352;2022-07-29T08:48:16;94911.81;;;25.14;48.76
56831;BME280;42713;42.676;23.352;2022-07-29T08:50:43;94900.22;;;25.23;48.52
56831;BME280;42713;42.676;23.352;2022-07-29T08:53:15;94901.94;;;25.27;47.39
56831;BME280;42713;42.676;23.352;2022-07-29T08:55:49;94903.94;;;25.30;47.36
56831;BME280;42713;42.676;23.352;2022-07-29T08:58:15;94898.03;;;25.37;47.10
56831;BME280;42713;42.676;23.352;2022-07-29T09:00:44;94900.19;;;25.44;47.15
56831;BME280;42713;42.676;23.352;2022-07-29T09:03:12;94897.06;;;25.42;46.46
56831;BME280;42713;42.676;23.352;2022-07-29T09:05:41;94901.66;;;25.54;46.29
56831;BME280;42713;42.676;23.352;2022-07-29T09:08:07;94893.03;;;25.60;46.10
56831;BME280;42713;42.676;23.352;2022-07-29T09:10:35;94886.03;;;25.68;45.52
56831;BME280;42713;42.676;23.352;2022-07-29T09:13:00;94885.56;;;25.66;44.97
56831;BME280;42713;42.676;23.352;2022-07-29T09:15:26;94889.47;;;25.69;44.56
56831;BME280;42713;42.676;23.352;2022-07-29T09:17:51;94896.41;;;25.70;44.50
56831;BME280;42713;42.676;23.352;2022-07-29T09:20:19;94889.38;;;25.65;44.59
56831;BME280;42713;42.676;23.352;2022-07-29T09:22:46;94899.31;;;25.64;44.70
56831;BME280;42713;42.676;23.352;2022-07-29T09:25:38;94897.75;;;25.63;44.92
56831;BME280;42713;42.676;23.352;2022-07-29T09:28:09;94893.16;;;25.64;45.45
56831;BME280;42713;42.676;23.352;2022-07-29T09:30:39;94892.03;;;25.65;45.36
56831;BME280;42713;42.676;23.352;2022-07-29T09:33:14;94888.81;;;25.72;45.35
56831;BME280;42713;42.676;23.352;2022-07-29T09:35:40;94890.50;;;25.76;45.77
56831;BME280;42713;42.676;23.352;2022-07-29T09:38:15;94884.00;;;25.90;44.96
56831;BME280;42713;42.676;23.352;2022-07-29T09:40:40;94890.69;;;25.96;44.59
56831;BME280;42713;42.676;23.352;2022-07-29T09:43:10;94888.00;;;26.08;44.59
56831;BME280;42713;42.676;23.352;2022-07-29T09:45:36;94883.22;;;26.14;44.74
56831;BME280;42713;42.676;23.352;2022-07-29T09:48:16;94874.59;;;26.21;44.41
56831;BME280;42713;42.676;23.352;2022-07-29T09:50:43;94881.75;;;26.29;45.04
56831;BME280;42713;42.676;23.352;2022-07-29T09:53:09;94876.81;;;26.31;45.18
56831;BME280;42713;42.676;23.352;2022-07-29T09:55:51;94873.53;;;26.38;44.45
56831;BME280;42713;42.676;23.352;2022-07-29T09:58:18;94868.16;;;26.50;44.03
56831;BME280;42713;42.676;23.352;2022-07-29T10:00:45;94869.91;;;26.59;44.02
56831;BME280;42713;42.676;23.352;2022-07-29T10:03:12;94868.66;;;26.68;43.93
56831;BME280;42713;42.676;23.352;2022-07-29T10:05:37;94863.13;;;26.77;43.81
56831;BME280;42713;42.676;23.352;2022-07-29T10:08:04;94856.97;;;26.77;44.01
56831;BME280;42713;42.676;23.352;2022-07-29T10:10:33;94846.34;;;26.80;44.09
56831;BME280;42713;42.676;23.352;2022-07-29T10:13:09;94850.69;;;26.85;44.14
56831;BME280;42713;42.676;23.352;2022-07-29T10:15:37;94845.03;;;26.90;43.93
56831;BME280;42713;42.676;23.352;2022-07-29T10:18:06;94842.88;;;26.96;43.34
56831;BME280;42713;42.676;23.352;2022-07-29T10:20:32;94840.28;;;26.99;42.33
56831;BME280;42713;42.676;23.352;2022-07-29T10:22:58;94838.13;;;27.05;42.49
56831;BME280;42713;42.676;23.352;2022-07-29T10:25:24;94830.50;;;27.07;42.83
56831;BME280;42713;42.676;23.352;2022-07-29T10:27:51;94830.78;;;27.18;42.82
56831;BME280;42713;42.676;23.352;2022-07-29T10:30:17;94815.44;;;27.18;42.67
56831;BME280;42713;42.676;23.352;2022-07-29T10:44:21;94814.34;;;27.52;39.13
56831;BME280;42713;42.676;23.352;2022-07-29T10:46:47;94820.72;;;27.63;39.35
56831;BME280;42713;42.676;23.352;2022-07-29T10:49:14;94816.28;;;27.71;39.46
56831;BME280;42713;42.676;23.352;2022-07-29T10:51:57;94809.22;;;27.82;39.35
56831;BME280;42713;42.676;23.352;2022-07-29T10:57:21;94803.00;;;27.98;38.99
56831;BME280;42713;42.676;23.352;2022-07-29T11:00:30;94797.00;;;28.04;38.64
56831;BME280;42713;42.676;23.352;2022-07-29T11:05:17;94792.72;;;28.19;38.79
56831;BME280;42713;42.676;23.352;2022-07-29T11:10:40;94784.72;;;28.42;38.91
56831;BME280;42713;42.676;23.352;2022-07-29T11:13:05;94783.81;;;28.54;39.06
56831;BME280;42713;42.676;23.352;2022-07-29T11:15:52;94791.34;;;28.88;38.47
56831;BME280;42713;42.676;23.352;2022-07-29T11:18:17;94789.84;;;29.14;37.94
56831;BME280;42713;42.676;23.352;2022-07-29T11:23:32;94777.28;;;29.45;36.38
56831;BME280;42713;42.676;23.352;2022-07-29T11:29:24;94770.13;;;29.87;36.44
56831;BME280;42713;42.676;23.352;2022-07-29T11:31:52;94773.06;;;30.01;37.34
56831;BME280;42713;42.676;23.352;2022-07-29T11:34:26;94769.22;;;30.02;36.00
56831;BME280;42713;42.676;23.352;2022-07-29T11:39:31;94767.91;;;30.23;35.58
56831;BME280;42713;42.676;23.352;2022-07-29T11:47:38;94769.81;;;30.53;34.64
56831;BME280;42713;42.676;23.352;2022-07-29T11:50:08;94755.19;;;30.57;35.15
56831;BME280;42713;42.676;23.352;2022-07-29T11:52:45;94767.59;;;30.62;34.51
56831;BME280;42713;42.676;23.352;2022-07-29T11:55:22;94761.44;;;30.65;33.10
56831;BME280;42713;42.676;23.352;2022-07-29T11:57:50;94757.31;;;30.75;33.80
56831;BME280;42713;42.676;23.352;2022-07-29T12:03:00;94752.00;;;30.86;33.53
56831;BME280;42713;42.676;23.352;2022-07-29T12:05:33;94750.16;;;30.97;33.42
56831;BME280;42713;42.676;23.352;2022-07-29T12:08:13;94742.50;;;31.07;34.21
56831;BME280;42713;42.676;23.352;2022-07-29T12:10:40;94745.63;;;31.09;33.72
56831;BME280;42713;42.676;23.352;2022-07-29T12:13:07;94746.84;;;31.15;33.14
56831;BME280;42713;42.676;23.352;2022-07-29T12:15:32;94746.19;;;31.29;32.87
56831;BME280;42713;42.676;23.352;2022-07-29T12:17:58;94738.53;;;31.42;32.26
56831;BME280;42713;42.676;23.352;2022-07-29T12:20:30;94746.31;;;31.50;32.38
56831;BME280;42713;42.676;23.352;2022-07-29T12:22:56;94738.66;;;31.60;32.70
56831;BME280;42713;42.676;23.352;2022-07-29T12:25:23;94733.72;;;31.73;31.94
56831;BME280;42713;42.676;23.352;2022-07-29T12:28:03;94741.94;;;31.91;31.71
56831;BME280;42713;42.676;23.352;2022-07-29T12:33:00;94736.53;;;31.98;31.19
56831;BME280;42713;42.676;23.352;2022-07-29T12:35:26;94729.22;;;31.98;31.38
56831;BME280;42713;42.676;23.352;2022-07-29T12:37:52;94734.66;;;32.06;32.03
56831;BME280;42713;42.676;23.352;2022-07-29T12:40:20;94726.13;;;32.04;29.74
56831;BME280;42713;42.676;23.352;2022-07-29T12:43:24;94715.63;;;31.95;29.74
56831;BME280;42713;42.676;23.352;2022-07-29T12:45:55;94733.13;;;32.16;31.20
56831;BME280;42713;42.676;23.352;2022-07-29T12:51:01;94725.00;;;32.12;29.28
56831;BME280;42713;42.676;23.352;2022-07-29T12:53:27;94725.00;;;32.12;29.22
56831;BME280;42713;42.676;23.352;2022-07-29T12:55:55;94724.28;;;32.26;28.78
56831;BME280;42713;42.676;23.352;2022-07-29T12:58:36;94705.72;;;32.35;29.47
56831;BME280;42713;42.676;23.352;2022-07-29T13:03:29;94705.00;;;32.71;30.36
56831;BME280;42713;42.676;23.352;2022-07-29T13:05:54;94696.50;;;32.98;30.11
56831;BME280;42713;42.676;23.352;2022-07-29T13:08:20;94701.94;;;33.23;29.57
56831;BME280;42713;42.676;23.352;2022-07-29T13:10:45;94701.53;;;33.54;28.91
56831;BME280;42713;42.676;23.352;2022-07-29T13:13:13;94699.13;;;33.74;28.72
56831;BME280;42713;42.676;23.352;2022-07-29T13:15:42;94692.88;;;33.95;28.26
56831;BME280;42713;42.676;23.352;2022-07-29T13:18:30;94692.38;;;34.22;28.11
56831;BME280;42713;42.676;23.352;2022-07-29T13:21:10;94694.56;;;34.49;27.76
56831;BME280;42713;42.676;23.352;2022-07-29T13:23:36;94683.13;;;34.72;27.41
56831;BME280;42713;42.676;23.352;2022-07-29T13:26:08;94691.47;;;35.03;27.06
56831;BME280;42713;42.676;23.352;2022-07-29T13:28:34;94686.22;;;35.27;26.63
56831;BME280;42713;42.676;23.352;2022-07-29T13:31:01;94680.13;;;35.53;26.68
56831;BME280;42713;42.676;23.352;2022-07-29T13:33:27;94682.91;;;35.81;26.42
56831;BME280;42713;42.676;23.352;2022-07-29T13:35:52;94677.66;;;36.01;25.62
56831;BME280;42713;42.676;23.352;2022-07-29T13:38:18;94672.75;;;36.20;25.50
56831;BME280;42713;42.676;23.352;2022-07-29T13:40:43;94665.44;;;36.40;25.16
56831;BME280;42713;42.676;23.352;2022-07-29T13:43:09;94667.09;;;36.61;25.49
56831;BME280;42713;42.676;23.352;2022-07-29T13:45:35;94664.41;;;36.85;25.47
56831;BME280;42713;42.676;23.352;2022-07-29T13:48:01;94665.66;;;37.04;24.84
56831;BME280;42713;42.676;23.352;2022-07-29T13:50:26;94671.88;;;37.29;24.04
56831;BME280;42713;42.676;23.352;2022-07-29T13:52:53;94672.66;;;37.29;23.22
56831;BME280;42713;42.676;23.352;2022-07-29T13:55:19;94668.38;;;37.52;23.86
56831;BME280;42713;42.676;23.352;2022-07-29T13:57:44;94665.00;;;37.44;22.65
56831;BME280;42713;42.676;23.352;2022-07-29T14:00:10;94677.53;;;37.62;23.57
56831;BME280;42713;42.676;23.352;2022-07-29T14:02:37;94664.44;;;37.73;23.00
56831;BME280;42713;42.676;23.352;2022-07-29T14:05:04;94670.06;;;37.86;21.84
56831;BME280;42713;42.676;23.352;2022-07-29T14:07:30;94663.75;;;37.49;22.04
56831;BME280;42713;42.676;23.352;2022-07-29T14:09:55;94670.84;;;37.43;22.04
56831;BME280;42713;42.676;23.352;2022-07-29T14:12:22;94666.19;;;37.63;22.60
56831;BME280;42713;42.676;23.352;2022-07-29T14:14:47;94664.94;;;37.88;22.00